Data for 01/13/2013

Time Sea-Level Adjusted Pressure Absolute Pressure Temperature Relative Humidity Dew Point   
(mb) (inHg) (mb) (inHg) (C) (F) (%) (C) (F)
00:05 1019 30.09 849 25.07 -17.8 -0 86 -19.6 -3.2
00:10 1019 30.09 849 25.07 -17.5 0.5 86 -19.4 -2.9
00:15 1019 30.09 849 25.07 -17.5 0.4 85 -19.5 -3.1
00:20 1019 30.09 849 25.07 -17.6 0.3 85 -19.5 -3.2
00:25 1019 30.09 849 25.07 -17.6 0.4 85 -19.5 -3.1
00:30 1020 30.12 849 25.07 -17.5 0.6 85 -19.4 -2.9
00:35 1020 30.12 849 25.07 -17.5 0.6 85 -19.4 -2.9
00:40 1020 30.12 849 25.07 -17.4 0.7 85 -19.3 -2.7
00:45 1020 30.12 849 25.07 -17.3 0.8 85 -19.3 -2.7
00:50 1020 30.12 849 25.07 -17.3 1 85 -19.2 -2.6
00:55 1020 30.12 849 25.07 -17.2 1 85 -19.1 -2.4
01:00 1020 30.12 849 25.07 -17.2 1.1 85 -19.1 -2.3
01:05 1020 30.12 849 25.07 -17.1 1.2 85 -19.1 -2.3
01:10 1020 30.12 849 25.07 -17.1 1.2 85 -19.1 -2.4
01:15 1020 30.12 849 25.07 -17.1 1.2 85 -19.1 -2.4
01:20 1020 30.12 849 25.07 -17.2 1 84 -19.2 -2.6
01:25 1020 30.12 849 25.07 -17.3 0.9 85 -19.2 -2.6
01:30 1020 30.12 849 25.07 -17.2 1 85 -19.1 -2.5
01:35 1019 30.09 849 25.07 -17.2 1.1 85 -19.2 -2.5
01:40 1020 30.12 849 25.07 -17.3 0.9 83 -19.5 -3
01:45 1019 30.09 849 25.07 -17.3 0.8 84 -19.5 -3.1
01:50 1019 30.09 849 25.07 -17.3 0.8 83 -19.5 -3.1
01:55 1019 30.09 849 25.07 -17.3 0.9 83 -19.5 -3.1
02:00 1019 30.09 849 25.07 -17.4 0.7 83 -19.6 -3.4
02:05 1019 30.09 849 25.07 -17.6 0.4 83 -19.8 -3.6
02:10 1019 30.09 849 25.07 -17.5 0.4 84 -19.7 -3.5
02:15 1019 30.09 849 25.07 -17.5 0.5 84 -19.6 -3.3
02:20 1019 30.09 849 25.07 -17.4 0.7 83 -19.6 -3.3
02:25 1019 30.09 849 25.07 -17.4 0.8 83 -19.5 -3.2
02:30 1019 30.09 849 25.07 -17.3 0.9 84 -19.4 -2.9
02:35 1019 30.09 848 25.04 -17.3 0.9 83 -19.5 -3.1
02:40 1019 30.09 848 25.04 -17.4 0.7 83 -19.6 -3.3
02:45 1019 30.09 848 25.04 -17.5 0.6 83 -19.7 -3.5
02:50 1019 30.09 848 25.04 -17.5 0.6 83 -19.7 -3.5
02:55 1019 30.09 849 25.07 -17.4 0.6 83 -19.7 -3.4
03:00 1019 30.09 849 25.07 -17.3 0.8 83 -19.5 -3.1
03:05 1019 30.09 848 25.04 -17.2 1 83 -19.5 -3.1
03:10 1019 30.09 849 25.07 -17.3 0.9 82 -19.7 -3.4
03:15 1019 30.09 849 25.07 -17.3 0.8 82 -19.7 -3.4
03:20 1019 30.09 849 25.07 -17.4 0.7 82 -19.7 -3.5
03:25 1019 30.09 849 25.07 -17.3 0.8 83 -19.6 -3.3
03:30 1019 30.09 849 25.07 -17.4 0.8 83 -19.6 -3.4
03:35 1020 30.12 849 25.07 -17.3 0.9 83 -19.6 -3.2
03:40 1020 30.12 849 25.07 -17.2 1 82 -19.6 -3.2
03:45 1019 30.09 849 25.07 -17.2 1.1 82 -19.5 -3.2
03:50 1019 30.09 849 25.07 -17.1 1.2 82 -19.5 -3.1
03:55 1019 30.09 849 25.07 -17 1.4 82 -19.3 -2.8
04:00 1020 30.12 849 25.07 -16.9 1.6 83 -19.1 -2.4
04:05 1020 30.12 849 25.07 -16.8 1.8 84 -18.9 -2
04:10 1020 30.12 849 25.07 -16.6 2.2 84 -18.7 -1.7
04:15 1020 30.12 849 25.07 -16.5 2.4 84 -18.6 -1.5
04:20 1020 30.12 849 25.07 -16.4 2.5 83 -18.6 -1.4
04:25 1020 30.12 849 25.07 -16.4 2.5 83 -18.6 -1.6
04:30 1020 30.12 849 25.07 -16.5 2.3 82 -18.9 -2
04:35 1020 30.12 849 25.07 -16.6 2 82 -19 -2.3
04:40 1020 30.12 849 25.07 -16.6 2 82 -19 -2.3
04:45 1019 30.09 849 25.07 -16.6 2.2 82 -19 -2.2
04:50 1019 30.09 849 25.07 -16.6 2.2 82 -19 -2.2
04:55 1019 30.09 849 25.07 -16.6 2.2 81 -19 -2.3
05:00 1019 30.09 849 25.07 -16.6 2.1 81 -19.1 -2.4
05:05 1019 30.09 849 25.07 -16.6 2.1 81 -19.1 -2.4
05:10 1019 30.09 848 25.04 -16.6 2.1 81 -19.2 -2.5
05:15 1019 30.09 849 25.07 -16.6 2.2 81 -19.1 -2.4
05:20 1019 30.09 848 25.04 -16.5 2.3 81 -19 -2.2
05:25 1019 30.09 848 25.04 -16.5 2.3 80 -19.2 -2.6
05:30 1019 30.09 848 25.04 -16.5 2.3 80 -19.2 -2.6
05:35 1019 30.09 848 25.04 -16.5 2.3 80 -19.1 -2.5
05:40 1019 30.09 848 25.04 -16.4 2.4 81 -19.1 -2.3
05:45 1019 30.09 848 25.04 -16.4 2.4 80 -19.2 -2.5
05:50 1019 30.09 848 25.04 -16.6 2.2 81 -19.1 -2.3
05:55 1019 30.09 848 25.04 -16.6 2.2 80 -19.3 -2.7
06:00 1019 30.09 849 25.07 -16.6 2.2 80 -19.3 -2.7
06:05 1019 30.09 849 25.07 -16.6 2.2 81 -19.1 -2.4
06:10 1019 30.09 849 25.07 -16.4 2.6 82 -18.7 -1.7
06:15 1019 30.09 849 25.07 -16.3 2.7 81 -18.8 -1.8
06:20 1019 30.09 849 25.07 -16.4 2.5 81 -19 -2.1
06:25 1019 30.09 849 25.07 -16.6 2.1 83 -18.9 -2
06:30 1019 30.09 849 25.07 -16.6 2.1 83 -18.9 -1.9
06:35 1019 30.09 849 25.07 -16.5 2.2 82 -18.9 -2
06:40 1020 30.12 849 25.07 -16.6 2.2 83 -18.9 -2
06:45 1020 30.12 849 25.07 -16.5 2.2 82 -18.9 -2
06:50 1020 30.12 849 25.07 -16.6 2.1 81 -19.1 -2.3
06:55 1020 30.12 849 25.07 -16.7 1.9 82 -19 -2.3
07:00 1020 30.12 849 25.07 -16.9 1.7 83 -19.2 -2.5
07:05 1020 30.12 849 25.07 -17 1.5 83 -19.2 -2.5
07:10 1020 30.12 849 25.07 -17.1 1.3 83 -19.3 -2.7
07:15 1020 30.12 849 25.07 -17.2 1 84 -19.3 -2.8
07:20 1020 30.12 849 25.07 -17.1 1.2 84 -19.2 -2.6
07:25 1020 30.12 849 25.07 -17 1.3 84 -19.1 -2.4
07:30 1020 30.12 849 25.07 -16.9 1.5 83 -19.1 -2.4
07:35 1020 30.12 849 25.07 -17 1.5 83 -19.2 -2.6
07:40 1020 30.12 849 25.07 -17 1.3 84 -19.2 -2.5
07:45 1020 30.12 849 25.07 -17.1 1.3 84 -19.2 -2.6
07:50 1020 30.12 849 25.07 -17.1 1.1 84 -19.3 -2.7
07:55 1020 30.12 849 25.07 -17.1 1.1 84 -19.3 -2.7
08:00 1020 30.12 849 25.07 -17.2 1.1 84 -19.3 -2.7
08:05 1020 30.12 849 25.07 -17.2 1.1 84 -19.3 -2.8
08:10 1020 30.12 849 25.07 -17.2 1 84 -19.3 -2.8
08:15 1020 30.12 849 25.07 -17.3 0.9 84 -19.4 -2.9
08:20 1020 30.12 849 25.07 -17.3 0.9 84 -19.4 -2.9
08:25 1020 30.12 849 25.07 -17.3 0.9 84 -19.4 -2.9
08:30 1020 30.12 849 25.07 -17.3 0.9 84 -19.3 -2.8
08:35 1020 30.12 849 25.07 -17.3 0.8 85 -19.3 -2.7
08:40 1020 30.12 850 25.1 -17.4 0.8 86 -19.2 -2.6
08:45 1020 30.12 850 25.1 -17.3 0.8 85 -19.3 -2.7
08:50 1020 30.12 850 25.1 -17.6 0.3 86 -19.5 -3.1
08:55 1020 30.12 849 25.07 -17.7 0.2 86 -19.5 -3.1
09:00 1020 30.12 849 25.07 -17.6 0.3 86 -19.4 -3
09:05 1020 30.12 849 25.07 -17.6 0.4 85 -19.5 -3.1
09:10 1020 30.12 850 25.1 -17.6 0.4 85 -19.5 -3
09:15 1020 30.12 850 25.1 -17.5 0.5 85 -19.4 -3
09:20 1020 30.12 850 25.1 -17.5 0.5 84 -19.5 -3.2
09:25 1020 30.12 850 25.1 -17.5 0.6 85 -19.5 -3.1
09:30 1021 30.15 850 25.1 -17.3 0.8 84 -19.4 -2.9
09:35 1021 30.15 850 25.1 -17.1 1.2 84 -19.2 -2.6
09:40 1021 30.15 850 25.1 -16.8 1.7 83 -19.1 -2.3
09:45 1021 30.15 850 25.1 -16.5 2.4 81 -19 -2.1
09:50 1021 30.15 850 25.1 -16.2 2.8 81 -18.8 -1.8
09:55 1021 30.15 850 25.1 -16.1 3.1 79 -18.9 -2
10:00 1021 30.15 850 25.1 -16.3 2.8 79 -19 -2.3
10:05 1021 30.15 850 25.1 -16.5 2.4 80 -19.2 -2.5
10:10 1021 30.15 850 25.1 -16.6 2.1 80 -19.3 -2.7
10:15 1021 30.15 850 25.1 -16.5 2.4 80 -19.2 -2.5
10:20 1021 30.15 850 25.1 -16.3 2.8 78 -19.2 -2.5
10:25 1021 30.15 850 25.1 -16.4 2.6 79 -19.2 -2.5
10:30 1021 30.15 850 25.1 -16.1 3 79 -18.9 -2
10:35 1021 30.15 850 25.1 -15.2 4.6 75 -18.7 -1.7
10:40 1021 30.15 850 25.1 -14.5 5.9 73 -18.4 -1.1
10:45 1021 30.15 850 25.1 -13.8 7.1 68 -18.5 -1.2
10:50 1021 30.15 850 25.1 -13.5 7.6 69 -18.1 -0.6
10:55 1021 30.15 850 25.1 -13.8 7.2 70 -18.2 -0.7
11:00 1021 30.15 850 25.1 -14.3 6.3 72 -18.2 -0.8
11:05 1021 30.15 850 25.1 -14.6 5.8 73 -18.4 -1.2
11:10 1021 30.15 850 25.1 -14.8 5.4 74 -18.5 -1.3
11:15 1021 30.15 850 25.1 -15 4.9 74 -18.6 -1.5
11:20 1021 30.15 850 25.1 -15.5 4.2 77 -18.7 -1.7
11:25 1021 30.15 850 25.1 -15.6 3.9 76 -18.9 -2
11:30 1021 30.15 850 25.1 -15.5 4.1 76 -18.8 -1.8
11:35 1021 30.15 850 25.1 -15.4 4.3 77 -18.6 -1.4
11:40 1021 30.15 850 25.1 -15.1 4.8 74 -18.7 -1.6
11:45 1021 30.15 850 25.1 -15.5 4.1 76 -18.8 -1.8
11:50 1021 30.15 850 25.1 -15.7 3.8 77 -18.8 -1.9
11:55 1021 30.15 850 25.1 -15.7 3.7 77 -18.9 -2
12:00 1021 30.15 850 25.1 -15.8 3.7 78 -18.8 -1.9
12:05 1021 30.15 850 25.1 -15.6 4 76 -18.8 -1.9
12:10 1021 30.15 850 25.1 -15.5 4.1 76 -18.9 -2
12:15 1021 30.15 850 25.1 -15.3 4.5 76 -18.6 -1.5
12:20 1021 30.15 850 25.1 -15.1 4.9 75 -18.6 -1.4
12:25 1021 30.15 850 25.1 -14.6 5.8 73 -18.4 -1.1
12:30 1021 30.15 850 25.1 -14.5 5.9 73 -18.4 -1.1
12:35 1021 30.15 850 25.1 -14.1 6.7 72 -18.1 -0.6
12:40 1020 30.12 850 25.1 -13.3 8.2 69 -17.7 0.1
12:45 1020 30.12 850 25.1 -12.8 9 68 -17.6 0.3
12:50 1020 30.12 850 25.1 -12.6 9.3 66 -17.7 0.1
12:55 1020 30.12 850 25.1 -12.6 9.3 66 -17.7 0.2
13:00 1020 30.12 850 25.1 -12.7 9.1 67 -17.6 0.3
13:05 1020 30.12 850 25.1 -12.7 9.2 67 -17.7 0.2
13:10 1020 30.12 850 25.1 -12.6 9.4 66 -17.6 0.2
13:15 1020 30.12 849 25.07 -12.4 9.7 66 -17.4 0.7
13:20 1020 30.12 849 25.07 -12.1 10.3 65 -17.4 0.7
13:25 1020 30.12 849 25.07 -11.9 10.7 65 -17.3 0.9
13:30 1020 30.12 849 25.07 -11.7 11 63 -17.3 0.9
13:35 1020 30.12 849 25.07 -11.9 10.6 65 -17.2 1
13:40 1020 30.12 849 25.07 -12.1 10.3 64 -17.5 0.6
13:45 1020 30.12 849 25.07 -12.5 9.5 65 -17.8 -0
13:50 1020 30.12 849 25.07 -13 8.6 68 -17.7 0.2
13:55 1020 30.12 849 25.07 -12.9 8.7 68 -17.7 0.1
14:00 1020 30.12 849 25.07 -12.8 8.9 67 -17.7 0.2
14:05 1020 30.12 849 25.07 -12.7 9.1 66 -17.9 -0.2
14:10 1020 30.12 849 25.07 -12.7 9.1 67 -17.7 0.1
14:15 1020 30.12 849 25.07 -11.9 10.6 62 -17.7 0.1
14:20 1020 30.12 849 25.07 -11.8 10.7 63 -17.6 0.3
14:25 1020 30.12 850 25.1 -11.8 10.7 63 -17.5 0.4
14:30 1020 30.12 850 25.1 -12.4 9.6 67 -17.4 0.7
14:35 1020 30.12 850 25.1 -12.2 10.1 64 -17.7 0.1
14:40 1020 30.12 850 25.1 -12.4 9.6 66 -17.5 0.6
14:45 1020 30.12 850 25.1 -13 8.5 68 -17.8 -0.1
14:50 1020 30.12 850 25.1 -13.1 8.5 67 -18.1 -0.5
14:55 1020 30.12 850 25.1 -13.6 7.5 70 -18 -0.4
15:00 1020 30.12 849 25.07 -12.9 8.8 66 -17.9 -0.3
15:05 1020 30.12 849 25.07 -13.1 8.4 69 -17.7 0.2
15:10 1020 30.12 850 25.1 -13.4 8 68 -18 -0.4
15:15 1020 30.12 850 25.1 -13.1 8.3 67 -18.1 -0.6
15:20 1020 30.12 850 25.1 -12.9 8.7 67 -17.8 -0.1
15:25 1020 30.12 850 25.1 -12.8 8.9 66 -18 -0.4
15:30 1020 30.12 850 25.1 -12.6 9.4 65 -17.9 -0.3
15:35 1021 30.15 850 25.1 -12.4 9.6 66 -17.5 0.4
15:40 1021 30.15 850 25.1 -12.3 9.8 65 -17.7 0.1
15:45 1021 30.15 850 25.1 -12.4 9.6 65 -17.8 -0
15:50 1021 30.15 850 25.1 -12.3 9.9 65 -17.6 0.4
15:55 1021 30.15 850 25.1 -12.5 9.5 65 -17.8 -0
16:00 1021 30.15 850 25.1 -12.7 9.2 66 -17.8 -0
16:05 1021 30.15 850 25.1 -12.5 9.6 65 -17.8 0
16:10 1021 30.15 850 25.1 -12.7 9.2 67 -17.6 0.3
16:15 1021 30.15 850 25.1 -12.5 9.4 66 -17.6 0.3
16:20 1020 30.12 850 25.1 -12.3 9.9 65 -17.6 0.4
16:25 1020 30.12 850 25.1 -12.3 9.8 66 -17.4 0.7
16:30 1020 30.12 850 25.1 -12.5 9.5 69 -17.1 1.2
16:35 1020 30.12 850 25.1 -12.8 8.9 71 -17.1 1.2
16:40 1020 30.12 850 25.1 -12.7 9.2 69 -17.2 1
16:45 1020 30.12 850 25.1 -12.8 8.9 70 -17.2 1
16:50 1020 30.12 850 25.1 -12.9 8.7 69 -17.6 0.4
16:55 1020 30.12 849 25.07 -13 8.7 70 -17.3 0.8
17:00 1020 30.12 849 25.07 -13 8.6 71 -17.2 1.1
17:05 1020 30.12 849 25.07 -13.2 8.2 72 -17.3 0.9
17:10 1020 30.12 849 25.07 -13.5 7.8 74 -17.2 1.1
17:15 1020 30.12 849 25.07 -13.5 7.7 73 -17.3 0.9
17:20 1020 30.12 849 25.07 -13.7 7.3 75 -17.3 0.9
17:25 1020 30.12 849 25.07 -14 6.9 75 -17.4 0.6
17:30 1020 30.12 849 25.07 -14 6.8 74 -17.6 0.3
17:35 1020 30.12 849 25.07 -14 6.8 74 -17.7 0.1
17:40 1020 30.12 849 25.07 -14.1 6.7 73 -17.9 -0.3
17:45 1020 30.12 849 25.07 -14.1 6.6 74 -17.8 -0.1
17:50 1020 30.12 849 25.07 -14.2 6.5 74 -17.8 -0
17:55 1020 30.12 849 25.07 -14.1 6.7 74 -17.7 0.2
18:00 1020 30.12 849 25.07 -14 6.9 74 -17.6 0.3
18:05 1020 30.12 849 25.07 -14 6.7 75 -17.5 0.5
18:10 1020 30.12 849 25.07 -14.2 6.4 76 -17.6 0.3
18:15 1020 30.12 849 25.07 -14.4 6 75 -17.9 -0.2
18:20 1020 30.12 849 25.07 -14.6 5.8 76 -17.8 -0.1
18:25 1020 30.12 849 25.07 -14.6 5.7 77 -17.8 -0.1
18:30 1020 30.12 849 25.07 -14.8 5.4 78 -17.8 -0
18:35 1020 30.12 849 25.07 -15.1 4.8 78 -18.1 -0.5
18:40 1020 30.12 849 25.07 -15.3 4.5 79 -18.2 -0.7
18:45 1020 30.12 849 25.07 -15.3 4.4 78 -18.3 -0.9
18:50 1020 30.12 849 25.07 -15.2 4.6 78 -18.3 -0.9
18:55 1020 30.12 849 25.07 -15.2 4.7 77 -18.4 -1.1
19:00 1020 30.12 849 25.07 -15.1 4.9 75 -18.5 -1.4
19:05 1020 30.12 849 25.07 -15 5 75 -18.5 -1.4
19:10 1020 30.12 849 25.07 -15 5.1 75 -18.5 -1.3
19:15 1020 30.12 849 25.07 -15 5 75 -18.5 -1.4
19:20 1020 30.12 849 25.07 -15.1 4.8 75 -18.5 -1.3
19:25 1020 30.12 849 25.07 -15.2 4.7 76 -18.5 -1.4
19:30 1020 30.12 849 25.07 -15.4 4.2 77 -18.7 -1.6
19:35 1020 30.12 849 25.07 -15.9 3.4 78 -19 -2.1
19:40 1020 30.12 849 25.07 -16.1 3 79 -18.9 -2
19:45 1020 30.12 849 25.07 -16 3.2 78 -19.1 -2.3
19:50 1020 30.12 849 25.07 -16 3.2 76 -19.3 -2.7
19:55 1020 30.12 849 25.07 -15.9 3.3 75 -19.4 -2.9
20:00 1020 30.12 849 25.07 -15.9 3.3 77 -19.2 -2.5
20:05 1020 30.12 849 25.07 -15.8 3.5 76 -19.1 -2.4
20:10 1020 30.12 849 25.07 -15.8 3.6 77 -18.9 -2
20:15 1020 30.12 849 25.07 -15.7 3.8 75 -19.1 -2.4
20:20 1020 30.12 849 25.07 -15.7 3.8 76 -19 -2.2
20:25 1020 30.12 849 25.07 -15.9 3.5 77 -19 -2.1
20:30 1020 30.12 849 25.07 -15.9 3.4 79 -18.7 -1.7
20:35 1020 30.12 849 25.07 -15.8 3.7 77 -18.8 -1.9
20:40 1020 30.12 849 25.07 -15.7 3.8 77 -18.9 -2
20:45 1020 30.12 849 25.07 -15.7 3.8 76 -19.1 -2.3
20:50 1020 30.12 849 25.07 -15.4 4.2 74 -19.1 -2.3
20:55 1020 30.12 849 25.07 -15.2 4.7 75 -18.7 -1.6
21:00 1020 30.12 849 25.07 -15.1 4.9 77 -18.3 -0.9
21:05 1020 30.12 849 25.07 -15.2 4.7 78 -18.3 -0.9
21:10 1020 30.12 849 25.07 -15.3 4.5 79 -18.2 -0.8
21:15 1020 30.12 849 25.07 -15.3 4.4 79 -18.2 -0.8
21:20 1020 30.12 849 25.07 -15.3 4.4 79 -18.1 -0.6
21:25 1020 30.12 849 25.07 -15.4 4.2 79 -18.4 -1
21:30 1020 30.12 849 25.07 -15.9 3.4 81 -18.4 -1.2
21:35 1020 30.12 849 25.07 -15.8 3.5 80 -18.5 -1.3
21:40 1020 30.12 849 25.07 -15.6 3.9 81 -18.3 -0.9
21:45 1020 30.12 849 25.07 -15.7 3.7 81 -18.3 -1
21:50 1020 30.12 849 25.07 -15.9 3.4 81 -18.4 -1.2
21:55 1020 30.12 849 25.07 -16.2 2.9 82 -18.6 -1.4
22:00 1020 30.12 849 25.07 -16.5 2.3 84 -18.6 -1.5
22:05 1020 30.12 849 25.07 -16.7 2 85 -18.6 -1.5
22:10 1020 30.12 849 25.07 -16.7 2 85 -18.6 -1.5
22:15 1020 30.12 849 25.07 -16.7 1.9 86 -18.6 -1.4
22:20 1020 30.12 849 25.07 -16.6 2.1 85 -18.6 -1.4
22:25 1020 30.12 849 25.07 -16.5 2.3 85 -18.5 -1.3
22:30 1020 30.12 849 25.07 -16.4 2.4 85 -18.4 -1.2
22:35 1020 30.12 849 25.07 -16.4 2.5 84 -18.5 -1.3
22:40 1020 30.12 849 25.07 -16.4 2.5 84 -18.6 -1.4
22:45 1020 30.12 849 25.07 -16.5 2.3 84 -18.6 -1.4
22:50 1020 30.12 849 25.07 -16.5 2.4 84 -18.6 -1.4
22:55 1020 30.12 849 25.07 -16.5 2.4 85 -18.4 -1.2
23:00 1020 30.12 849 25.07 -16.3 2.6 85 -18.3 -1
23:05 1020 30.12 849 25.07 -16.3 2.6 85 -18.3 -1
23:10 1020 30.12 849 25.07 -16.5 2.3 84 -18.6 -1.4
23:15 1020 30.12 849 25.07 -16.8 1.9 85 -18.7 -1.7
23:20 1020 30.12 849 25.07 -16.7 1.9 85 -18.7 -1.6
23:25 1020 30.12 849 25.07 -16.7 2 85 -18.7 -1.6
23:30 1020 30.12 849 25.07 -16.5 2.3 85 -18.5 -1.3
23:35 1020 30.12 849 25.07 -16.4 2.5 85 -18.4 -1.1
23:40 1020 30.12 849 25.07 -16.3 2.7 84 -18.4 -1.2
23:45 1020 30.12 849 25.07 -16.3 2.8 84 -18.4 -1.1
23:50 1020 30.12 849 25.07 -16.3 2.8 84 -18.4 -1.1
23:55 1020 30.12 849 25.07 -16.2 2.9 84 -18.3 -1
24:00 1020 30.12 849 25.07 -16.1 3 83 -18.4 -1.1